Time;durP1;ratioP1;P1;durP2;ratioP2;P2;SDS_P1;SDS_P2;PMS_P1;PMS_P2;Temp;Humidity;BMP_temperature;BMP_pressure;BME280_temperature;BME280_humidity;BME280_pressure;Samples;Min_cycle;Max_cycle;Signal;HPM_P1;HPM_P2
2022/11/11 00:00:35;;;;;;;6.00;5.03;;;11.70;46.60;;;;;;5032249;28;20170;-44
2022/11/11 00:03:01;;;;;;;10.57;5.72;;;11.70;46.80;;;;;;5032619;28;20248;-42
2022/11/11 00:05:27;;;;;;;5.93;4.67;;;11.70;46.70;;;;;;5032369;28;20284;-43
2022/11/11 00:07:58;;;;;;;6.75;5.05;;;11.70;46.70;;;;;;5031971;28;20405;-42
2022/11/11 00:10:30;;;;;;;9.05;5.55;;;11.70;46.60;;;;;;5032185;28;20194;-42
2022/11/11 00:13:00;;;;;;;7.72;5.10;;;11.60;46.40;;;;;;5032131;28;20170;-43
2022/11/11 00:15:27;;;;;;;5.60;4.18;;;11.60;46.40;;;;;;5032134;28;20206;-44
2022/11/11 00:26:12;;;;;;;4.80;4.32;;;11.50;46.50;;;;;;5031682;28;20236;-44
2022/11/11 00:28:37;;;;;;;8.30;5.03;;;11.40;46.80;;;;;;5032381;28;20602;-43
2022/11/11 00:31:11;;;;;;;10.03;4.20;;;11.50;47.50;;;;;;5031888;28;20296;-45
2022/11/11 00:33:37;;;;;;;5.07;4.07;;;11.50;47.20;;;;;;5032261;28;20193;-46
2022/11/11 00:36:04;;;;;;;11.52;4.38;;;11.50;47.80;;;;;;5031396;28;20189;-46
2022/11/11 00:38:44;;;;;;;10.63;4.95;;;11.50;47.60;;;;;;5033029;28;20254;-43
2022/11/11 00:41:11;;;;;;;13.10;4.13;;;11.50;47.50;;;;;;5034501;28;20174;-44
2022/11/11 00:43:37;;;;;;;9.93;5.10;;;11.50;47.50;;;;;;5034625;28;20166;-46
2022/11/11 00:51:33;;;;;;;4.90;3.92;;;11.40;47.50;;;;;;5031987;28;20608;-42
2022/11/11 00:53:58;;;;;;;6.67;3.50;;;11.40;47.40;;;;;;5032122;28;20198;-44
2022/11/11 00:56:24;;;;;;;5.33;4.60;;;11.40;47.50;;;;;;5031511;28;20201;-42
2022/11/11 00:58:50;;;;;;;6.93;3.73;;;11.40;47.30;;;;;;5031649;28;20174;-44
2022/11/11 01:01:16;;;;;;;8.13;4.43;;;11.40;47.20;;;;;;5031839;28;20405;-46
2022/11/11 01:03:42;;;;;;;5.97;3.33;;;11.30;47.40;;;;;;5031787;28;20166;-47
2022/11/11 01:06:10;;;;;;;7.10;4.30;;;11.40;47.40;;;;;;5031152;28;20424;-43
2022/11/11 01:08:36;;;;;;;5.30;4.50;;;11.40;47.40;;;;;;5034229;28;20206;-46
2022/11/11 01:11:02;;;;;;;6.25;3.15;;;11.30;47.60;;;;;;5035450;28;20240;-44
2022/11/11 01:13:31;;;;;;;7.20;4.30;;;11.30;47.50;;;;;;5035608;28;20194;-46
2022/11/11 01:15:59;;;;;;;4.72;3.63;;;11.20;47.50;;;;;;5034792;28;20238;-44
2022/11/11 01:18:25;;;;;;;7.63;4.70;;;11.20;47.40;;;;;;5035520;28;20181;-46
2022/11/11 01:21:21;;;;;;;8.07;4.22;;;11.20;47.60;;;;;;5035177;28;20193;-43
2022/11/11 01:23:49;;;;;;;5.53;4.13;;;11.20;47.60;;;;;;5035604;28;20584;-43
2022/11/11 01:26:16;;;;;;;8.30;3.75;;;11.20;47.60;;;;;;5034914;28;20204;-45
2022/11/11 01:28:42;;;;;;;7.28;3.92;;;11.20;47.80;;;;;;5035303;28;20175;-43
2022/11/11 01:31:11;;;;;;;12.75;5.10;;;11.20;47.80;;;;;;5035040;28;20241;-44
2022/11/11 01:33:37;;;;;;;5.78;3.97;;;11.20;47.70;;;;;;5033786;28;20648;-45
2022/11/11 01:36:06;;;;;;;7.90;4.13;;;11.20;48.00;;;;;;5034279;28;20704;-44
2022/11/11 01:38:31;;;;;;;16.30;4.80;;;11.20;47.90;;;;;;5034883;28;20661;-44
2022/11/11 01:40:57;;;;;;;6.90;4.80;;;11.20;47.80;;;;;;5035114;28;20252;-45
2022/11/11 01:43:24;;;;;;;12.23;4.30;;;11.20;47.70;;;;;;5035247;28;20174;-44
2022/11/11 01:45:57;;;;;;;7.88;4.38;;;11.10;47.80;;;;;;5034348;28;21105;-44
2022/11/11 01:52:09;;;;;;;11.52;3.85;;;11.20;47.60;;;;;;5034946;28;20196;-45
2022/11/11 01:54:37;;;;;;;6.55;3.65;;;11.10;47.60;;;;;;5021242;28;20178;-43
2022/11/11 01:57:12;;;;;;;9.43;4.03;;;11.00;47.80;;;;;;5033831;28;20197;-46
2022/11/11 01:59:41;;;;;;;7.90;3.65;;;11.00;48.20;;;;;;5034599;28;20644;-45
2022/11/11 02:02:16;;;;;;;8.85;4.05;;;10.90;48.40;;;;;;5034489;28;20699;-43
2022/11/11 02:07:30;;;;;;;5.53;3.30;;;10.90;48.40;;;;;;5034025;28;20263;-43
2022/11/11 02:09:57;;;;;;;6.03;3.30;;;10.90;48.40;;;;;;5034556;28;20261;-45
2022/11/11 02:15:07;;;;;;;5.53;3.40;;;10.80;48.20;;;;;;5034361;28;20165;-43
2022/11/11 02:17:33;;;;;;;5.75;3.92;;;10.80;48.20;;;;;;5033788;28;20174;-42
2022/11/11 02:20:01;;;;;;;7.85;3.40;;;10.80;48.20;;;;;;5032928;28;20176;-43
2022/11/11 02:23:11;;;;;;;7.70;3.50;;;10.80;48.30;;;;;;5034594;28;20178;-43
2022/11/11 02:25:39;;;;;;;7.32;4.53;;;10.80;48.20;;;;;;4991629;28;20191;-43
2022/11/11 02:28:06;;;;;;;3.63;3.15;;;10.70;48.30;;;;;;4992165;28;20230;-43
2022/11/11 02:30:32;;;;;;;5.70;3.40;;;10.70;48.10;;;;;;4992138;28;20199;-44
2022/11/11 02:32:58;;;;;;;6.30;3.90;;;10.70;48.20;;;;;;4992243;28;20182;-46
2022/11/11 02:35:32;;;;;;;8.23;4.63;;;10.70;48.40;;;;;;4992122;28;20213;-45
2022/11/11 02:37:59;;;;;;;5.57;3.65;;;10.70;48.40;;;;;;4992303;28;20151;-43
2022/11/11 02:41:55;;;;;;;4.63;3.63;;;10.70;48.40;;;;;;4992129;28;20180;-43
2022/11/11 02:43:25;;;;;;;3.80;3.33;;;10.80;48.40;;;;;;4991884;28;20220;-45
2022/11/11 02:45:50;;;;;;;6.25;3.78;;;10.70;48.40;;;;;;4991196;28;20222;-43
2022/11/11 02:48:16;;;;;;;6.17;3.40;;;10.70;48.40;;;;;;4991957;28;20543;-46
2022/11/11 02:50:42;;;;;;;6.83;4.07;;;10.70;48.60;;;;;;4992115;28;20735;-43
2022/11/11 02:53:08;;;;;;;6.13;3.53;;;10.80;48.50;;;;;;4992017;28;20555;-43
2022/11/11 02:55:33;;;;;;;6.77;3.80;;;10.80;48.40;;;;;;4975009;28;20188;-43
2022/11/11 02:58:00;;;;;;;7.30;3.83;;;10.80;48.40;;;;;;4992478;28;20176;-43
2022/11/11 03:00:25;;;;;;;6.78;3.72;;;10.80;48.30;;;;;;5027873;28;20178;-44
2022/11/11 03:02:51;;;;;;;6.00;4.00;;;10.90;48.50;;;;;;5034384;28;20308;-44
2022/11/11 03:05:17;;;;;;;7.47;4.80;;;10.80;48.30;;;;;;5037319;28;20273;-46
2022/11/11 03:07:43;;;;;;;9.63;4.60;;;10.80;48.60;;;;;;5036519;28;20205;-46
2022/11/11 03:10:08;;;;;;;5.43;3.97;;;10.80;48.30;;;;;;5036948;28;20432;-46
2022/11/11 03:12:34;;;;;;;4.47;3.40;;;10.80;48.20;;;;;;5034971;28;20173;-43
2022/11/11 03:15:00;;;;;;;8.00;4.60;;;10.80;48.20;;;;;;5032324;28;20448;-44
2022/11/11 03:17:38;;;;;;;6.60;4.50;;;10.70;48.20;;;;;;5032838;28;20190;-43
2022/11/11 03:23:08;;;;;;;6.13;4.30;;;10.70;48.40;;;;;;5032979;28;20161;-46
2022/11/11 03:25:46;;;;;;;5.80;5.00;;;10.80;48.40;;;;;;5032527;28;20313;-45
2022/11/11 03:28:17;;;;;;;7.60;4.68;;;10.70;48.50;;;;;;5032917;28;20176;-44
2022/11/11 03:30:45;;;;;;;5.40;3.78;;;10.70;48.50;;;;;;5032600;28;20191;-43
2022/11/11 03:33:11;;;;;;;5.18;3.65;;;10.70;48.50;;;;;;5033466;28;20187;-43
2022/11/11 03:35:37;;;;;;;7.20;4.40;;;10.60;48.50;;;;;;5032129;28;20265;-42
2022/11/11 03:38:23;;;;;;;9.77;4.97;;;10.60;48.60;;;;;;5032672;28;20447;-43
2022/11/11 03:40:55;;;;;;;13.82;5.60;;;10.60;48.50;;;;;;5032677;28;20170;-44
2022/11/11 03:43:23;;;;;;;5.18;3.95;;;10.60;48.60;;;;;;5032527;28;20176;-43
2022/11/11 03:45:50;;;;;;;8.63;4.03;;;10.60;48.60;;;;;;5031886;28;20225;-45
2022/11/11 03:48:15;;;;;;;7.28;4.05;;;10.50;48.70;;;;;;5032656;28;20178;-43
2022/11/11 03:50:41;;;;;;;12.00;4.30;;;10.50;48.60;;;;;;5032709;28;20220;-44
2022/11/11 03:53:08;;;;;;;6.37;4.23;;;10.60;48.50;;;;;;5032500;28;20468;-43
2022/11/11 03:55:33;;;;;;;8.10;3.80;;;10.60;48.50;;;;;;5031800;28;20875;-44
2022/11/11 03:57:59;;;;;;;8.13;4.70;;;10.60;48.50;;;;;;5032458;28;20253;-43
2022/11/11 04:00:27;;;;;;;7.87;3.87;;;10.60;48.40;;;;;;5032455;28;20200;-44
2022/11/11 04:11:15;;;;;;;7.68;3.45;;;10.60;48.40;;;;;;5032316;28;20192;-47
2022/11/11 04:16:28;;;;;;;7.10;4.15;;;10.60;48.20;;;;;;5031717;28;20243;-44
2022/11/11 04:21:44;;;;;;;6.05;4.10;;;10.50;48.20;;;;;;5032249;28;20176;-44
2022/11/11 04:27:00;;;;;;;7.40;3.60;;;10.40;48.20;;;;;;5031933;28;20758;-46
2022/11/11 04:29:27;;;;;;;10.55;4.20;;;10.30;48.20;;;;;;5032317;28;20324;-44
2022/11/11 04:34:42;;;;;;;6.88;4.57;;;10.40;48.20;;;;;;5032113;28;20170;-44
2022/11/11 04:37:08;;;;;;;8.93;6.00;;;10.30;48.30;;;;;;5031284;28;20182;-44
2022/11/11 04:42:19;;;;;;;6.45;4.13;;;10.30;48.50;;;;;;5032389;28;20688;-43
2022/11/11 04:47:29;;;;;;;6.55;4.53;;;10.20;49.30;;;;;;5035853;28;20240;-44
2022/11/11 04:49:54;;;;;;;9.60;4.87;;;10.20;48.70;;;;;;5036119;28;20184;-43
2022/11/11 04:52:26;;;;;;;6.73;4.90;;;10.20;48.70;;;;;;5035917;28;20546;-43
2022/11/11 04:57:44;;;;;;;12.80;5.95;;;10.30;48.90;;;;;;5035650;28;20181;-43
2022/11/11 05:00:13;;;;;;;6.40;5.00;;;10.30;49.00;;;;;;5035771;28;20224;-44
2022/11/11 05:05:24;;;;;;;6.00;4.50;;;10.20;48.80;;;;;;5035750;28;20152;-45
2022/11/11 05:10:34;;;;;;;13.18;5.28;;;10.30;49.00;;;;;;5035709;28;20688;-45
2022/11/11 05:21:21;;;;;;;7.90;5.55;;;10.40;48.80;;;;;;5036111;28;20165;-45
2022/11/11 05:26:31;;;;;;;6.03;5.20;;;10.30;48.70;;;;;;5034996;28;20224;-43
2022/11/11 05:28:57;;;;;;;7.23;5.33;;;10.30;48.80;;;;;;5035387;28;20178;-44
2022/11/11 05:31:23;;;;;;;8.40;4.90;;;10.30;48.80;;;;;;5035292;28;20483;-44
2022/11/11 05:33:49;;;;;;;8.10;5.03;;;10.30;48.60;;;;;;5035708;28;20204;-44
2022/11/11 05:36:15;;;;;;;10.73;5.70;;;10.30;48.50;;;;;;5035113;28;20193;-45
2022/11/11 05:38:40;;;;;;;12.40;4.57;;;10.30;48.40;;;;;;5035050;28;20413;-43
2022/11/11 05:41:07;;;;;;;9.63;5.53;;;10.30;48.30;;;;;;5034972;28;20245;-45
2022/11/11 05:43:33;;;;;;;6.72;5.03;;;10.30;48.40;;;;;;5034894;28;20167;-44
2022/11/11 05:45:59;;;;;;;6.87;5.30;;;10.30;48.30;;;;;;5034110;28;20221;-43
2022/11/11 05:48:25;;;;;;;8.27;6.20;;;10.20;48.20;;;;;;5034887;28;20201;-45
2022/11/11 05:50:50;;;;;;;8.23;4.70;;;10.20;48.20;;;;;;5034783;28;20735;-44
2022/11/11 05:53:22;;;;;;;8.50;5.67;;;10.30;48.30;;;;;;5034943;28;20177;-43
2022/11/11 05:55:49;;;;;;;10.15;6.30;;;10.30;48.20;;;;;;5034288;28;20198;-44
2022/11/11 05:58:17;;;;;;;7.45;6.20;;;10.30;48.30;;;;;;5034824;28;20254;-44
2022/11/11 06:00:43;;;;;;;12.35;6.78;;;10.30;48.40;;;;;;5034732;28;20177;-44
2022/11/11 06:03:09;;;;;;;9.60;6.53;;;10.30;48.40;;;;;;5034708;28;20178;-44
2022/11/11 06:05:37;;;;;;;8.07;6.27;;;10.30;48.60;;;;;;5033747;28;20669;-43
2022/11/11 06:08:03;;;;;;;9.82;6.97;;;10.30;48.60;;;;;;5034401;28;20546;-43
2022/11/11 06:10:29;;;;;;;8.50;6.30;;;10.30;48.60;;;;;;5034436;28;20239;-44
2022/11/11 06:13:03;;;;;;;10.47;6.30;;;10.30;48.60;;;;;;5034291;28;20413;-45
2022/11/11 06:15:31;;;;;;;8.63;5.47;;;10.30;48.60;;;;;;5034072;28;20617;-45
2022/11/11 06:17:57;;;;;;;11.88;5.95;;;10.30;48.50;;;;;;5034281;28;20177;-43
2022/11/11 06:20:22;;;;;;;13.43;7.23;;;10.30;48.60;;;;;;5034507;28;20170;-44
2022/11/11 06:22:57;;;;;;;9.53;6.13;;;10.30;48.60;;;;;;5034361;28;20185;-43
2022/11/11 06:28:09;;;;;;;9.27;7.00;;;10.30;48.80;;;;;;5034604;28;20189;-44
2022/11/11 06:30:35;;;;;;;18.17;8.20;;;10.30;49.00;;;;;;5034697;28;20565;-45
2022/11/11 06:33:01;;;;;;;14.07;7.72;;;10.30;48.80;;;;;;5034819;28;20182;-44
2022/11/11 06:35:27;;;;;;;9.87;6.93;;;10.30;48.80;;;;;;5039059;28;20682;-44
2022/11/11 06:37:53;;;;;;;7.40;5.53;;;10.40;48.70;;;;;;5041760;28;20404;-44
2022/11/11 06:40:18;;;;;;;10.03;6.20;;;10.40;48.60;;;;;;5036793;28;20181;-44
2022/11/11 06:42:44;;;;;;;10.07;6.40;;;10.40;48.50;;;;;;5039859;28;20201;-43
2022/11/11 06:45:10;;;;;;;8.00;6.77;;;10.50;48.60;;;;;;5039985;28;20178;-44
2022/11/11 06:47:35;;;;;;;12.77;7.27;;;10.50;48.60;;;;;;5037441;28;20541;-45
2022/11/11 06:50:01;;;;;;;14.73;8.07;;;10.50;48.60;;;;;;5033738;28;20638;-44
2022/11/11 06:52:27;;;;;;;19.70;8.23;;;10.50;48.70;;;;;;5032286;28;20201;-44
2022/11/11 06:54:53;;;;;;;14.13;6.87;;;10.50;48.80;;;;;;5034133;28;20177;-44
2022/11/11 06:57:22;;;;;;;13.33;7.10;;;10.50;48.90;;;;;;5032950;28;20958;-45
2022/11/11 06:59:47;;;;;;;12.38;6.85;;;10.50;48.90;;;;;;5033684;28;20179;-44
2022/11/11 07:02:14;;;;;;;10.33;7.07;;;10.50;49.00;;;;;;5034286;28;20181;-44
2022/11/11 07:04:39;;;;;;;11.13;6.43;;;10.50;48.90;;;;;;5033324;28;20633;-46
2022/11/11 07:07:05;;;;;;;10.33;7.00;;;10.60;49.00;;;;;;5032253;28;20217;-45
2022/11/11 07:09:31;;;;;;;10.00;7.27;;;10.60;49.10;;;;;;5033248;28;20657;-46
2022/11/11 07:11:57;;;;;;;13.03;7.20;;;10.60;48.90;;;;;;5033452;28;20198;-46
2022/11/11 07:14:22;;;;;;;15.23;8.00;;;10.70;49.00;;;;;;5033869;28;20542;-45
2022/11/11 07:16:48;;;;;;;13.70;8.13;;;10.70;49.00;;;;;;5032769;28;20198;-43
2022/11/11 07:19:14;;;;;;;9.33;7.37;;;10.80;49.10;;;;;;5033597;28;20166;-45
2022/11/11 07:21:39;;;;;;;13.20;7.50;;;10.90;49.00;;;;;;5035939;28;20598;-44
2022/11/11 07:24:05;;;;;;;13.50;9.10;;;10.90;49.00;;;;;;5035597;28;20292;-45
2022/11/11 07:26:31;;;;;;;11.20;8.33;;;11.00;48.90;;;;;;5035487;28;20204;-45
2022/11/11 07:28:57;;;;;;;12.20;7.30;;;11.10;49.70;;;;;;5036688;28;20432;-45
2022/11/11 07:31:22;;;;;;;8.83;7.00;;;11.20;49.00;;;;;;5033471;28;20205;-44
2022/11/11 07:33:48;;;;;;;9.33;6.90;;;11.20;48.90;;;;;;5032921;28;21132;-44
2022/11/11 07:36:14;;;;;;;8.43;7.57;;;11.30;48.80;;;;;;5032175;28;20186;-44
2022/11/11 07:38:40;;;;;;;15.70;7.67;;;11.40;48.80;;;;;;5032669;28;20173;-46
2022/11/11 07:41:05;;;;;;;8.43;6.63;;;11.40;48.70;;;;;;5032615;28;20186;-46
2022/11/11 07:43:31;;;;;;;9.37;7.47;;;11.40;48.60;;;;;;5032816;28;20189;-45
2022/11/11 07:45:57;;;;;;;8.13;7.00;;;11.50;48.60;;;;;;5032148;28;20216;-45
2022/11/11 07:48:22;;;;;;;10.87;7.80;;;11.60;48.50;;;;;;5032528;28;20610;-44
2022/11/11 07:50:51;;;;;;;10.27;7.00;;;11.60;48.50;;;;;;5032395;28;20264;-45
2022/11/11 07:53:17;;;;;;;13.10;8.65;;;11.70;48.60;;;;;;5032628;28;20184;-44
2022/11/11 07:55:45;;;;;;;12.53;7.87;;;11.70;48.60;;;;;;5031836;28;20198;-43
2022/11/11 07:58:11;;;;;;;12.85;7.20;;;11.80;48.60;;;;;;5032326;28;20270;-45
2022/11/11 08:00:37;;;;;;;11.43;7.90;;;11.90;48.40;;;;;;5032646;28;20186;-45
2022/11/11 08:03:03;;;;;;;12.00;8.40;;;12.10;48.20;;;;;;5031212;28;20265;-45
2022/11/11 08:05:29;;;;;;;10.48;7.35;;;12.10;48.20;;;;;;5032391;28;20197;-46
2022/11/11 08:07:55;;;;;;;10.67;6.63;;;12.20;48.30;;;;;;5031941;28;20173;-45
2022/11/11 08:10:20;;;;;;;12.80;9.30;;;12.30;48.40;;;;;;5032215;28;20184;-46
2022/11/11 08:15:37;;;;;;;16.02;8.45;;;12.60;48.10;;;;;;5032709;28;20435;-46
2022/11/11 08:18:03;;;;;;;14.47;8.33;;;12.70;47.80;;;;;;5033100;28;20186;-46
2022/11/11 08:20:28;;;;;;;12.53;7.60;;;12.70;47.70;;;;;;5032840;28;20173;-46
2022/11/11 08:22:56;;;;;;;11.77;8.77;;;12.80;47.70;;;;;;5032900;28;20174;-46
2022/11/11 08:25:22;;;;;;;17.58;9.57;;;12.90;47.60;;;;;;5032208;28;20741;-46
2022/11/11 08:27:48;;;;;;;11.30;7.60;;;12.90;47.30;;;;;;5031944;28;20257;-45
2022/11/11 08:30:14;;;;;;;13.90;8.18;;;12.90;47.10;;;;;;5032174;28;20431;-45
2022/11/11 08:32:40;;;;;;;11.60;8.40;;;12.90;47.30;;;;;;5031870;28;20248;-45
2022/11/11 08:35:06;;;;;;;11.40;7.53;;;12.90;47.40;;;;;;5031930;28;20412;-45
2022/11/11 08:37:32;;;;;;;10.57;7.70;;;12.90;47.20;;;;;;5031609;28;20166;-44
2022/11/11 08:39:58;;;;;;;15.93;8.57;;;12.90;47.30;;;;;;5032200;28;20177;-44
2022/11/11 08:42:23;;;;;;;16.13;8.77;;;12.90;47.10;;;;;;5031970;28;20178;-46
2022/11/11 08:44:50;;;;;;;15.40;8.10;;;12.90;47.00;;;;;;5031875;28;20186;-45
2022/11/11 08:47:16;;;;;;;7.93;7.13;;;13.00;47.00;;;;;;5031030;28;20214;-44
2022/11/11 08:49:42;;;;;;;10.98;9.45;;;13.10;47.00;;;;;;5032125;28;20189;-46
2022/11/11 08:52:08;;;;;;;11.67;7.83;;;13.30;47.20;;;;;;5032097;28;20569;-45
2022/11/11 08:54:33;;;;;;;10.53;7.60;;;13.50;46.80;;;;;;5031729;28;20533;-46
2022/11/11 08:56:59;;;;;;;9.03;8.00;;;13.70;46.80;;;;;;5031054;28;20186;-46
2022/11/11 08:59:25;;;;;;;9.07;7.60;;;13.90;46.40;;;;;;5031985;28;20180;-45
2022/11/11 09:01:50;;;;;;;9.60;8.27;;;14.00;46.30;;;;;;5031699;28;20174;-47
2022/11/11 09:04:16;;;;;;;11.00;7.77;;;14.20;46.00;;;;;;5032109;28;20198;-44
2022/11/11 09:06:44;;;;;;;15.87;9.90;;;14.30;45.80;;;;;;5031237;28;20198;-47
2022/11/11 09:09:10;;;;;;;10.40;7.45;;;14.40;45.40;;;;;;5031554;28;20428;-45
2022/11/11 09:11:36;;;;;;;8.73;7.50;;;14.50;45.40;;;;;;5031598;28;20677;-47
2022/11/11 09:14:02;;;;;;;11.60;7.10;;;14.50;45.30;;;;;;5031558;28;20409;-47
2022/11/11 09:16:27;;;;;;;9.50;6.40;;;14.60;45.00;;;;;;5030940;28;20200;-47
2022/11/11 09:18:53;;;;;;;12.93;7.33;;;14.70;44.50;;;;;;5031833;28;20508;-47
2022/11/11 09:21:19;;;;;;;10.63;8.00;;;14.70;44.10;;;;;;5032006;28;20201;-46
2022/11/11 09:23:44;;;;;;;12.50;6.80;;;14.80;44.10;;;;;;5031400;28;20511;-46
2022/11/11 09:26:10;;;;;;;8.70;6.30;;;14.80;44.30;;;;;;5030666;28;20198;-47
2022/11/11 09:28:36;;;;;;;8.50;6.20;;;14.90;44.00;;;;;;5032121;28;20174;-47
2022/11/11 09:31:02;;;;;;;10.97;6.67;;;15.00;43.50;;;;;;5034822;28;20604;-47
2022/11/11 09:33:28;;;;;;;9.98;7.25;;;15.00;43.90;;;;;;5035183;28;20162;-47
2022/11/11 09:35:54;;;;;;;8.60;7.27;;;15.20;44.80;;;;;;5034536;28;20197;-46
2022/11/11 09:38:19;;;;;;;12.90;6.77;;;15.20;43.70;;;;;;5035181;28;20454;-46
2022/11/11 09:41:10;;;;;;;11.33;7.00;;;15.30;43.40;;;;;;5034975;28;20723;-44
2022/11/11 09:43:53;;;;;;;9.57;7.15;;;15.30;43.50;;;;;;5034724;28;20738;-44
2022/11/11 09:46:34;;;;;;;8.50;7.43;;;15.30;43.70;;;;;;5034039;28;20224;-45
2022/11/11 09:49:17;;;;;;;10.40;8.10;;;15.30;43.30;;;;;;5035025;28;20166;-46
2022/11/11 09:51:54;;;;;;;9.10;6.72;;;15.40;43.50;;;;;;5034503;28;20744;-45
2022/11/11 09:54:34;;;;;;;11.77;7.25;;;15.40;43.10;;;;;;5034887;28;20254;-44
2022/11/11 09:57:07;;;;;;;9.73;6.20;;;15.40;43.00;;;;;;5034315;28;20604;-45
2022/11/11 09:59:49;;;;;;;15.55;7.68;;;15.40;43.10;;;;;;5034867;28;20228;-45
2022/11/11 10:02:33;;;;;;;12.02;6.75;;;15.30;43.10;;;;;;5034571;28;20181;-47
2022/11/11 10:05:09;;;;;;;12.30;7.20;;;15.30;43.40;;;;;;5034676;28;20173;-47
2022/11/11 10:07:51;;;;;;;10.32;6.88;;;15.30;43.10;;;;;;5033858;28;20170;-47
2022/11/11 10:10:43;;;;;;;8.32;6.45;;;15.20;43.30;;;;;;5034370;28;20252;-46
2022/11/11 10:13:19;;;;;;;9.95;7.35;;;15.30;44.40;;;;;;5034320;28;20577;-45
2022/11/11 10:16:14;;;;;;;10.43;8.00;;;15.40;43.40;;;;;;5032446;28;20197;-45
2022/11/11 10:18:57;;;;;;;11.50;7.10;;;15.50;43.40;;;;;;5034203;28;20165;-46
2022/11/11 10:21:42;;;;;;;10.10;6.25;;;15.60;43.90;;;;;;5034330;28;20174;-45
2022/11/11 10:24:18;;;;;;;10.57;7.43;;;16.00;44.20;;;;;;5034556;28;20216;-47
2022/11/11 10:26:45;;;;;;;9.98;8.07;;;16.50;43.70;;;;;;5033973;28;20277;-46
2022/11/11 10:29:20;;;;;;;15.20;6.47;;;16.90;43.10;;;;;;5034035;28;20205;-47
2022/11/11 10:32:08;;;;;;;8.57;6.35;;;17.20;42.10;;;;;;5033855;28;20204;-46
2022/11/11 10:34:34;;;;;;;11.10;8.70;;;17.50;41.40;;;;;;5034032;28;20182;-46
2022/11/11 10:37:01;;;;;;;10.17;6.97;;;17.60;40.60;;;;;;5033092;28;20663;-46
2022/11/11 10:39:56;;;;;;;8.20;5.82;;;17.60;40.20;;;;;;5033772;28;20420;-47
2022/11/11 10:42:22;;;;;;;9.38;5.53;;;17.50;40.10;;;;;;5025990;28;20170;-47
2022/11/11 10:44:49;;;;;;;9.33;5.33;;;17.30;39.60;;;;;;5033627;28;20182;-46
2022/11/11 10:47:39;;;;;;;8.77;6.55;;;17.10;39.70;;;;;;5032890;28;20677;-45
2022/11/11 10:50:23;;;;;;;8.40;6.82;;;17.00;40.30;;;;;;5033759;28;20180;-46
2022/11/11 10:53:13;;;;;;;8.80;5.90;;;17.00;40.60;;;;;;5033749;28;20182;-47
2022/11/11 10:56:00;;;;;;;6.63;5.43;;;16.90;41.10;;;;;;5032843;28;20693;-45
2022/11/11 10:58:36;;;;;;;7.90;5.57;;;16.90;41.20;;;;;;5033292;28;20581;-45
2022/11/11 11:01:07;;;;;;;9.63;5.60;;;16.90;40.30;;;;;;5033153;28;20569;-47
2022/11/11 11:04:07;;;;;;;9.25;5.72;;;16.90;40.80;;;;;;5088738;22;20221;-41
2022/11/11 11:06:37;;;;;;;10.30;6.43;;;17.00;40.70;;;;;;5032233;28;20186;-41
2022/11/11 11:09:19;;;;;;;9.93;6.28;;;17.10;40.90;;;;;;5033268;28;20185;-42
2022/11/11 11:12:02;;;;;;;8.93;6.05;;;17.30;41.60;;;;;;5033305;28;20260;-41
2022/11/11 11:14:32;;;;;;;7.80;4.90;;;17.40;40.20;;;;;;5033061;28;20186;-42
2022/11/11 11:17:06;;;;;;;9.40;6.65;;;17.50;39.90;;;;;;5032518;28;20169;-42
2022/11/11 11:19:31;;;;;;;11.45;6.22;;;17.60;40.80;;;;;;5032981;28;20200;-41
2022/11/11 11:21:59;;;;;;;10.33;5.90;;;17.70;39.70;;;;;;5032873;28;20202;-42
2022/11/11 11:24:27;;;;;;;7.65;6.10;;;17.80;39.20;;;;;;5032854;28;20177;-41
2022/11/11 11:27:02;;;;;;;12.35;5.68;;;17.80;38.40;;;;;;5030969;28;20178;-41
2022/11/11 11:29:37;;;;;;;9.90;5.32;;;17.70;38.70;;;;;;5033048;28;20208;-41
2022/11/11 11:32:17;;;;;;;7.88;5.65;;;17.70;38.80;;;;;;5032638;28;20219;-40
2022/11/11 11:34:51;;;;;;;10.25;7.07;;;17.70;38.60;;;;;;5032805;28;20161;-41
2022/11/11 11:37:19;;;;;;;8.57;6.40;;;17.60;39.40;;;;;;5032134;28;20610;-42
2022/11/11 11:39:45;;;;;;;12.70;6.50;;;17.60;38.70;;;;;;5032670;28;20166;-41
2022/11/11 11:42:28;;;;;;;11.27;6.25;;;17.70;39.20;;;;;;5032603;28;20194;-41
2022/11/11 11:44:54;;;;;;;9.60;6.10;;;17.90;39.00;;;;;;5032582;28;20185;-42
2022/11/11 11:47:48;;;;;;;8.93;6.97;;;17.90;39.30;;;;;;5031960;28;20174;-42
2022/11/11 11:50:26;;;;;;;11.27;8.75;;;18.10;39.30;;;;;;5032547;28;20918;-41
2022/11/11 11:53:19;;;;;;;11.48;7.75;;;18.10;39.00;;;;;;5032142;28;20687;-40
2022/11/11 11:55:59;;;;;;;9.30;7.05;;;18.20;38.60;;;;;;5031829;28;20216;-41
2022/11/11 11:58:48;;;;;;;12.40;6.18;;;18.20;39.00;;;;;;5032397;28;20162;-41
2022/11/11 12:01:58;;;;;;;10.25;6.55;;;18.30;39.40;;;;;;5032341;28;20174;-41
2022/11/11 12:04:59;;;;;;;10.05;6.95;;;18.50;38.50;;;;;;5015930;28;20196;-41
2022/11/11 12:07:43;;;;;;;7.55;4.60;;;18.40;38.50;;;;;;5031675;28;20203;-40
2022/11/11 12:10:44;;;;;;;9.52;5.90;;;18.50;38.70;;;;;;5032401;28;20257;-42
2022/11/11 12:13:28;;;;;;;7.85;5.60;;;18.50;38.00;;;;;;5032113;28;20201;-40
2022/11/11 12:16:15;;;;;;;7.28;6.03;;;18.50;38.50;;;;;;5031514;28;20526;-41
2022/11/11 12:19:01;;;;;;;8.40;5.70;;;18.60;38.90;;;;;;5032098;28;20154;-42
2022/11/11 12:21:39;;;;;;;9.18;6.88;;;18.80;38.70;;;;;;5032053;28;20158;-42
2022/11/11 12:24:32;;;;;;;13.20;5.65;;;19.10;37.90;;;;;;5032128;28;20158;-41
2022/11/11 12:27:32;;;;;;;8.18;6.13;;;19.40;37.60;;;;;;5031261;28;20180;-42
2022/11/11 12:30:06;;;;;;;8.05;5.85;;;19.50;37.00;;;;;;5032217;28;20169;-42
2022/11/11 12:32:45;;;;;;;7.32;5.85;;;19.50;36.50;;;;;;5032070;28;20220;-42
2022/11/11 12:35:32;;;;;;;9.60;5.65;;;19.60;35.70;;;;;;5032299;28;20174;-42
2022/11/11 12:38:26;;;;;;;7.82;5.18;;;19.70;36.20;;;;;;5032033;28;20245;-41
2022/11/11 12:41:16;;;;;;;9.45;6.03;;;19.90;36.40;;;;;;5032436;28;20178;-42
2022/11/11 12:44:04;;;;;;;8.85;5.85;;;19.90;35.50;;;;;;5031757;28;20251;-42
2022/11/11 12:46:48;;;;;;;9.75;5.90;;;19.70;35.90;;;;;;5031353;28;20194;-41
2022/11/11 12:49:29;;;;;;;13.02;5.35;;;19.50;35.90;;;;;;5031820;28;20634;-41
2022/11/11 12:52:15;;;;;;;8.35;5.95;;;19.50;36.20;;;;;;5031869;28;20229;-42
2022/11/11 12:55:11;;;;;;;7.45;5.53;;;19.40;36.50;;;;;;5031785;28;20194;-42
2022/11/11 12:57:52;;;;;;;7.15;5.70;;;19.30;36.50;;;;;;5031233;28;20162;-41
2022/11/11 13:00:21;;;;;;;8.38;5.78;;;19.30;36.60;;;;;;5031669;28;20170;-41
2022/11/11 13:02:55;;;;;;;8.63;5.93;;;19.20;36.70;;;;;;5031555;28;20209;-41
2022/11/11 13:05:35;;;;;;;8.38;5.35;;;19.20;37.10;;;;;;5035162;28;20236;-42
2022/11/11 13:08:29;;;;;;;8.38;6.25;;;19.20;36.90;;;;;;5035528;28;20174;-41
2022/11/11 13:11:07;;;;;;;7.78;4.28;;;19.10;36.80;;;;;;5035435;28;20268;-41
2022/11/11 13:13:53;;;;;;;10.25;6.00;;;19.00;37.60;;;;;;5035387;28;20194;-42
2022/11/11 13:16:23;;;;;;;9.05;5.78;;;18.90;37.90;;;;;;5034792;28;20588;-41
2022/11/11 13:19:05;;;;;;;9.75;6.80;;;18.80;38.10;;;;;;5035329;28;20188;-40
2022/11/11 13:21:41;;;;;;;8.80;6.60;;;18.80;38.20;;;;;;5035285;28;20170;-42
2022/11/11 13:24:12;;;;;;;9.25;6.03;;;18.70;38.20;;;;;;5035198;28;20532;-42
2022/11/11 13:27:02;;;;;;;9.82;6.55;;;18.70;38.50;;;;;;5034611;28;20178;-41
2022/11/11 13:29:27;;;;;;;7.75;5.70;;;18.70;38.90;;;;;;5027792;28;20190;-41
2022/11/11 13:31:54;;;;;;;9.03;5.40;;;18.60;38.80;;;;;;5034880;28;20202;-42
2022/11/11 13:34:21;;;;;;;10.20;6.68;;;18.50;39.00;;;;;;5035074;28;20170;-41
2022/11/11 13:36:51;;;;;;;10.45;6.32;;;18.50;39.00;;;;;;5034418;28;20194;-42
2022/11/11 13:39:23;;;;;;;8.43;5.93;;;18.50;38.70;;;;;;5034993;28;20569;-41
2022/11/11 13:41:52;;;;;;;9.95;6.35;;;18.40;38.90;;;;;;5035310;28;20190;-42
2022/11/11 13:44:33;;;;;;;11.25;6.13;;;18.30;39.30;;;;;;5034801;28;20204;-42
2022/11/11 13:47:06;;;;;;;10.65;6.38;;;18.30;39.40;;;;;;5034221;28;20165;-41
2022/11/11 13:49:50;;;;;;;12.90;6.97;;;18.30;39.50;;;;;;5034656;28;20257;-41
2022/11/11 13:52:27;;;;;;;10.48;6.88;;;18.20;39.30;;;;;;5034511;28;20209;-41
2022/11/11 13:55:00;;;;;;;9.02;6.40;;;18.20;39.30;;;;;;5035009;28;20178;-40
2022/11/11 13:57:30;;;;;;;16.42;7.47;;;18.20;39.60;;;;;;5034317;28;20155;-42
2022/11/11 14:00:03;;;;;;;13.40;7.60;;;18.10;39.80;;;;;;5034513;28;20189;-42
2022/11/11 14:02:35;;;;;;;8.25;6.18;;;18.10;39.70;;;;;;5034194;28;20214;-42
2022/11/11 14:05:01;;;;;;;6.97;6.13;;;18.00;39.50;;;;;;5035121;28;20560;-42
2022/11/11 14:07:48;;;;;;;9.37;6.20;;;17.90;39.40;;;;;;5033571;28;20178;-43
2022/11/11 14:10:16;;;;;;;10.68;6.55;;;17.70;39.20;;;;;;5034575;28;20602;-42
2022/11/11 14:12:53;;;;;;;11.07;6.63;;;17.60;39.30;;;;;;5034110;28;20255;-42
2022/11/11 14:15:33;;;;;;;10.23;7.63;;;17.60;39.50;;;;;;5033952;28;20169;-42
2022/11/11 14:17:59;;;;;;;8.23;6.35;;;17.50;39.60;;;;;;5034480;28;20594;-42
2022/11/11 14:20:36;;;;;;;11.23;6.78;;;17.40;39.50;;;;;;5034220;28;20642;-42